Time;durP1;ratioP1;P1;durP2;ratioP2;P2;SDS_P1;SDS_P2;PMS_P1;PMS_P2;Temp;Humidity;BMP_temperature;BMP_pressure;BME280_temperature;BME280_humidity;BME280_pressure;Samples;Min_cycle;Max_cycle;Signal;HPM_P1;HPM_P2
2023/07/16 00:00:10;;;;;;;9.48;3.17;;;;;;;18.23;82.24;100813.50;5094606;28;20024;-61
2023/07/16 00:02:37;;;;;;;9.10;2.80;;;;;;;18.11;81.49;100811.06;5094213;28;20477;-61
2023/07/16 00:05:03;;;;;;;10.05;2.70;;;;;;;18.07;81.56;100815.59;5094046;28;20095;-61
2023/07/16 00:07:28;;;;;;;8.13;2.72;;;;;;;17.90;81.44;100815.97;5094181;28;20107;-61
2023/07/16 00:09:54;;;;;;;7.20;2.88;;;;;;;17.83;81.45;100819.66;5094283;28;20477;-61
2023/07/16 00:12:19;;;;;;;9.48;2.67;;;;;;;17.76;81.42;100816.22;5094008;28;20036;-61
2023/07/16 00:14:44;;;;;;;9.63;3.25;;;;;;;17.68;81.15;100819.91;5094108;28;20399;-60
2023/07/16 00:17:10;;;;;;;13.00;2.58;;;;;;;17.69;81.67;100822.56;5077576;28;20161;-61
2023/07/16 00:19:36;;;;;;;9.48;3.25;;;;;;;17.60;81.57;100821.84;5073673;28;20509;-60
2023/07/16 00:22:01;;;;;;;10.98;3.17;;;;;;;17.55;81.78;100819.25;5073647;28;20040;-60
2023/07/16 00:24:26;;;;;;;8.23;2.92;;;;;;;17.56;81.92;100830.81;5073519;28;20067;-61
2023/07/16 00:26:52;;;;;;;8.27;2.95;;;;;;;17.62;82.05;100831.59;5073490;28;20111;-61
2023/07/16 00:29:18;;;;;;;9.63;2.97;;;;;;;17.59;81.93;100826.31;5073546;28;20029;-61
2023/07/16 00:31:43;;;;;;;8.63;2.97;;;;;;;17.53;82.42;100827.31;5073410;28;20452;-61
2023/07/16 00:34:08;;;;;;;6.90;2.83;;;;;;;17.55;82.28;100826.41;5073379;28;20029;-60
2023/07/16 00:36:34;;;;;;;9.30;3.13;;;;;;;17.56;82.18;100818.38;5073467;28;20025;-61
2023/07/16 00:38:59;;;;;;;10.40;2.97;;;;;;;17.58;81.99;100826.34;5073678;28;20017;-61
2023/07/16 00:41:24;;;;;;;7.90;3.00;;;;;;;17.52;82.03;100827.34;5073349;28;20031;-61
2023/07/16 00:43:50;;;;;;;8.25;3.13;;;;;;;17.43;82.88;100835.50;5073298;28;20029;-61
2023/07/16 00:46:17;;;;;;;7.65;2.90;;;;;;;17.33;83.75;100826.78;5073189;28;20082;-61
2023/07/16 00:48:43;;;;;;;8.30;2.95;;;;;;;17.24;83.65;100835.81;5073363;28;20066;-60
2023/07/16 00:51:09;;;;;;;9.82;3.10;;;;;;;17.15;84.80;100838.66;5073295;28;20079;-61
2023/07/16 00:53:35;;;;;;;10.07;3.28;;;;;;;17.14;84.73;100834.22;5073247;28;20402;-60
2023/07/16 00:56:00;;;;;;;8.50;3.03;;;;;;;17.11;85.30;100831.59;5073213;28;20029;-61
2023/07/16 00:58:26;;;;;;;8.27;2.80;;;;;;;17.20;85.25;100830.56;5073403;28;20031;-60
2023/07/16 01:00:51;;;;;;;7.72;2.75;;;;;;;17.17;85.35;100819.94;5073186;28;20476;-61
2023/07/16 01:03:17;;;;;;;8.10;2.80;;;;;;;17.14;85.31;100826.22;5073044;28;20499;-61
2023/07/16 01:05:59;;;;;;;7.20;2.75;;;;;;;17.10;85.85;100834.31;5073103;28;20482;-61
2023/07/16 01:08:46;;;;;;;10.57;2.88;;;;;;;17.12;85.92;100835.16;5073311;28;20051;-60
2023/07/16 01:11:12;;;;;;;10.20;3.00;;;;;;;17.05;86.06;100845.06;5073083;28;20036;-61
2023/07/16 01:13:39;;;;;;;7.82;3.00;;;;;;;17.00;86.69;100839.81;5072955;28;20020;-60
2023/07/16 01:16:05;;;;;;;7.95;2.92;;;;;;;16.94;87.25;100834.53;5072945;28;20032;-60
2023/07/16 01:18:30;;;;;;;9.02;2.80;;;;;;;16.90;87.48;100827.47;5073129;28;20062;-60
2023/07/16 01:20:56;;;;;;;9.52;2.83;;;;;;;16.87;87.72;100826.63;5072930;28;20039;-60
2023/07/16 01:23:50;;;;;;;7.90;2.97;;;;;;;16.88;88.30;100831.09;5072741;28;20112;-60
2023/07/16 01:26:53;;;;;;;8.00;3.10;;;;;;;16.87;88.09;100827.53;5072974;28;20060;-61
2023/07/16 01:29:28;;;;;;;8.95;2.80;;;;;;;16.92;87.72;100820.34;5072928;28;20474;-61
2023/07/16 01:31:55;;;;;;;10.10;2.90;;;;;;;16.91;88.14;100817.69;5073191;28;20089;-60
2023/07/16 01:34:21;;;;;;;11.27;3.20;;;;;;;16.86;88.83;100819.56;5072747;28;20064;-60
2023/07/16 01:36:47;;;;;;;8.10;2.72;;;;;;;16.89;88.88;100820.38;5072767;28;20071;-60
2023/07/16 01:39:14;;;;;;;9.75;3.17;;;;;;;16.89;89.82;100819.50;5072802;28;20021;-61
2023/07/16 01:41:39;;;;;;;8.00;3.33;;;;;;;16.88;90.37;100825.75;5072760;28;20490;-60
2023/07/16 01:44:05;;;;;;;8.00;3.22;;;;;;;16.86;90.76;100823.09;5054828;28;20035;-61
2023/07/16 01:46:30;;;;;;;9.48;3.30;;;;;;;16.88;91.20;100823.97;5072833;28;20024;-60
2023/07/16 01:48:55;;;;;;;10.25;3.30;;;;;;;16.87;91.66;100824.84;5072988;28;20029;-60
2023/07/16 01:51:21;;;;;;;9.35;3.40;;;;;;;16.90;91.97;100830.16;5072710;28;20025;-60
2023/07/16 01:53:46;;;;;;;10.43;3.47;;;;;;;16.98;91.73;100832.72;5072751;28;20025;-60
2023/07/16 01:56:12;;;;;;;9.68;3.17;;;;;;;16.98;91.71;100838.94;5072663;28;20028;-60
2023/07/16 01:58:38;;;;;;;9.38;3.60;;;;;;;17.02;92.61;100835.31;5072584;28;20028;-60
2023/07/16 02:01:03;;;;;;;9.95;3.40;;;;;;;16.91;93.13;100831.91;5072748;28;20056;-61
2023/07/16 02:03:28;;;;;;;8.20;3.10;;;;;;;16.89;93.21;100828.41;5054520;28;20032;-60
2023/07/16 02:05:54;;;;;;;7.43;3.15;;;;;;;16.86;93.81;100820.44;5072311;28;20037;-60
2023/07/16 02:08:19;;;;;;;11.23;4.10;;;;;;;16.80;94.95;100825.88;5072569;28;20036;-60
2023/07/16 02:10:47;;;;;;;13.60;4.03;;;;;;;16.75;95.43;100822.41;5072524;28;20494;-61
2023/07/16 02:13:14;;;;;;;7.22;3.80;;;;;;;16.76;96.04;100827.69;5072460;28;20393;-60
2023/07/16 02:15:39;;;;;;;8.27;3.72;;;;;;;16.76;96.08;100827.69;5073601;28;20032;-60
2023/07/16 02:18:05;;;;;;;12.20;3.78;;;;;;;16.76;96.90;100837.50;5076335;28;20091;-60
2023/07/16 02:20:31;;;;;;;10.60;3.65;;;;;;;16.75;96.86;100825.94;5076011;28;20071;-60
2023/07/16 02:22:56;;;;;;;9.93;3.50;;;;;;;16.76;97.00;100833.03;5075981;28;20021;-61
2023/07/16 02:25:21;;;;;;;7.60;3.45;;;;;;;16.74;97.41;100841.97;5075681;28;20045;-60
2023/07/16 02:27:47;;;;;;;8.45;3.47;;;;;;;16.73;97.39;100837.53;5075794;28;20557;-60
2023/07/16 02:30:14;;;;;;;8.73;3.30;;;;;;;16.71;97.51;100834.00;5076086;28;20035;-60
2023/07/16 02:32:39;;;;;;;13.75;3.08;;;;;;;16.70;96.98;100843.78;5075838;28;20509;-60
2023/07/16 02:35:05;;;;;;;8.85;3.47;;;;;;;16.71;97.42;100847.31;5075637;28;20028;-60
2023/07/16 02:37:31;;;;;;;7.85;3.45;;;;;;;16.75;96.82;100843.75;5075667;28;20063;-60
2023/07/16 02:39:56;;;;;;;10.13;3.60;;;;;;;16.73;97.55;100849.09;5075566;28;20107;-61
2023/07/16 02:42:21;;;;;;;8.38;3.67;;;;;;;16.71;97.80;100847.31;5075493;28;20017;-60
2023/07/16 02:44:47;;;;;;;8.90;3.53;;;;;;;16.67;97.57;100846.47;5075564;28;20071;-60
2023/07/16 02:47:12;;;;;;;11.70;3.25;;;;;;;16.66;97.92;100859.81;5075470;28;20020;-61
2023/07/16 02:49:38;;;;;;;9.55;3.33;;;;;;;16.59;98.63;100851.03;5075600;28;20514;-61
2023/07/16 02:52:04;;;;;;;10.85;3.35;;;;;;;16.61;98.19;100862.56;5075395;28;20029;-60
2023/07/16 02:54:30;;;;;;;8.00;3.20;;;;;;;16.58;98.74;100851.06;5075390;28;20051;-60
2023/07/16 02:56:55;;;;;;;9.90;3.60;;;;;;;16.55;98.63;100854.66;5075196;28;20466;-60
2023/07/16 02:59:21;;;;;;;9.52;3.20;;;;;;;16.53;98.27;100854.69;5075296;28;20024;-61
2023/07/16 03:01:46;;;;;;;10.10;3.30;;;;;;;16.54;97.58;100858.22;5075259;28;20028;-60
2023/07/16 03:04:12;;;;;;;8.25;3.08;;;;;;;16.52;97.20;100860.91;5075131;28;20032;-60
2023/07/16 03:06:37;;;;;;;10.57;3.55;;;;;;;16.46;97.23;100861.00;5075406;28;20067;-60
2023/07/16 03:09:03;;;;;;;9.18;3.47;;;;;;;16.43;97.03;100866.34;5075063;28;20108;-60
2023/07/16 03:11:29;;;;;;;9.02;3.40;;;;;;;16.40;97.01;100868.19;5075047;28;20059;-60
2023/07/16 03:13:54;;;;;;;8.23;3.08;;;;;;;16.37;96.78;100868.25;5074989;28;20489;-60
2023/07/16 03:16:19;;;;;;;7.97;3.40;;;;;;;16.28;96.75;100864.78;5074982;28;20040;-59
2023/07/16 03:18:45;;;;;;;10.75;3.65;;;;;;;16.30;95.86;100871.88;5075165;28;20108;-60
2023/07/16 03:21:11;;;;;;;6.72;3.50;;;;;;;16.28;94.52;100877.25;5075217;28;20032;-60
2023/07/16 03:23:36;;;;;;;8.90;3.63;;;;;;;16.26;93.04;100873.69;5074762;28;20040;-60
2023/07/16 03:26:02;;;;;;;9.15;3.85;;;;;;;16.25;92.66;100878.16;5074597;28;20351;-60
2023/07/16 03:28:27;;;;;;;12.48;3.95;;;;;;;16.20;91.31;100880.00;5073828;28;20056;-60
2023/07/16 03:30:53;;;;;;;13.70;3.78;;;;;;;16.14;90.26;100873.84;5074711;28;20052;-60
2023/07/16 03:33:19;;;;;;;7.97;4.03;;;;;;;16.11;89.99;100877.44;5074837;28;20021;-59
2023/07/16 03:35:48;;;;;;;11.57;4.38;;;;;;;16.07;88.67;100877.50;5074737;28;20381;-60
2023/07/16 03:38:14;;;;;;;12.05;4.00;;;;;;;16.02;88.38;100878.44;5074043;28;20028;-60
2023/07/16 03:40:42;;;;;;;11.45;4.13;;;;;;;16.04;87.56;100883.72;5073650;28;20033;-60
2023/07/16 03:43:08;;;;;;;8.65;3.65;;;;;;;16.03;87.16;100892.63;5073307;28;20021;-60
2023/07/16 03:45:34;;;;;;;13.25;4.25;;;;;;;15.99;87.16;100888.22;5073207;28;20096;-61
2023/07/16 03:47:59;;;;;;;8.32;3.90;;;;;;;15.94;87.05;100895.41;5055531;28;20029;-60
2023/07/16 03:50:25;;;;;;;15.23;4.00;;;;;;;15.93;87.06;100907.84;5073360;28;20028;-60
2023/07/16 03:52:50;;;;;;;11.88;4.10;;;;;;;15.89;87.44;100906.13;5073467;28;20052;-60
2023/07/16 03:55:15;;;;;;;8.95;3.90;;;;;;;15.89;87.13;100905.22;5073362;28;20029;-60
2023/07/16 03:57:41;;;;;;;8.70;3.92;;;;;;;15.87;87.38;100904.34;5073232;28;20355;-60
2023/07/16 04:00:09;;;;;;;11.40;4.05;;;;;;;15.83;87.08;100910.59;5073308;28;20024;-60
2023/07/16 04:02:34;;;;;;;15.85;4.00;;;;;;;15.78;87.20;100915.97;5073225;28;20056;-61
2023/07/16 04:05:00;;;;;;;9.10;3.63;;;;;;;15.75;88.09;100919.53;5072809;28;20040;-60
2023/07/16 04:07:25;;;;;;;9.73;3.70;;;;;;;15.78;86.67;100921.31;5072922;28;20516;-60
2023/07/16 04:09:51;;;;;;;9.65;4.10;;;;;;;15.78;86.58;100923.97;5072979;28;20179;-60
2023/07/16 04:12:17;;;;;;;8.13;3.63;;;;;;;15.71;85.95;100930.25;5072971;28;20032;-60
2023/07/16 04:14:42;;;;;;;8.43;3.90;;;;;;;15.68;85.56;100936.50;5072978;28;20486;-60
2023/07/16 04:17:08;;;;;;;8.80;4.13;;;;;;;15.68;85.29;100944.50;5072755;28;20055;-60
2023/07/16 04:19:33;;;;;;;10.48;4.07;;;;;;;15.67;85.45;100945.41;5072946;28;20051;-60
2023/07/16 04:21:59;;;;;;;10.57;4.10;;;;;;;15.61;84.74;100956.06;5072911;28;20116;-60
2023/07/16 04:24:26;;;;;;;10.75;4.20;;;;;;;15.64;84.03;100948.09;5072702;28;20394;-60
2023/07/16 04:26:52;;;;;;;12.80;4.30;;;;;;;15.60;84.34;100948.97;5072778;28;20020;-61
2023/07/16 04:29:18;;;;;;;11.77;4.43;;;;;;;15.59;84.78;100962.28;5072828;28;20490;-60
2023/07/16 04:31:43;;;;;;;14.10;4.50;;;;;;;15.59;84.81;100955.19;5072736;28;20063;-60
2023/07/16 04:34:08;;;;;;;15.70;4.85;;;;;;;15.56;84.70;100960.53;5072531;28;20399;-61
2023/07/16 04:36:34;;;;;;;11.43;4.43;;;;;;;15.53;84.90;100956.09;5072584;28;20033;-60
2023/07/16 04:38:59;;;;;;;17.30;4.70;;;;;;;15.53;84.73;100968.53;5072291;28;20394;-61
2023/07/16 04:41:24;;;;;;;10.38;4.28;;;;;;;15.61;85.16;100968.50;5072585;28;20029;-60
2023/07/16 04:43:50;;;;;;;14.73;4.70;;;;;;;15.55;83.77;100963.22;5072451;28;20029;-60
2023/07/16 04:46:16;;;;;;;13.38;4.43;;;;;;;15.60;84.06;100966.72;5072399;28;20066;-60
2023/07/16 04:48:41;;;;;;;14.35;4.97;;;;;;;15.62;83.25;100973.78;5072302;28;20024;-60
2023/07/16 04:51:07;;;;;;;9.63;4.90;;;;;;;15.60;83.71;100980.06;5072638;28;20135;-60
2023/07/16 04:53:32;;;;;;;11.25;4.72;;;;;;;15.61;83.94;100982.69;5072174;28;20067;-60
2023/07/16 04:55:57;;;;;;;11.82;4.63;;;;;;;15.61;84.10;100980.03;5072522;28;20035;-60
2023/07/16 04:58:23;;;;;;;15.23;5.28;;;;;;;15.60;83.97;100983.59;5072231;28;20104;-61
2023/07/16 05:00:49;;;;;;;11.23;5.00;;;;;;;15.56;83.76;100979.19;5072216;28;20029;-60
2023/07/16 05:03:14;;;;;;;14.20;4.65;;;;;;;15.59;84.16;100992.50;5072654;28;20460;-61
2023/07/16 05:05:40;;;;;;;11.43;4.60;;;;;;;15.71;84.01;100983.53;5072071;28;20040;-60
2023/07/16 05:08:05;;;;;;;11.50;5.00;;;;;;;15.65;82.65;100976.47;5072582;28;20020;-60
2023/07/16 05:10:31;;;;;;;11.98;4.60;;;;;;;15.74;82.48;100987.06;5072196;28;20035;-60
2023/07/16 05:12:56;;;;;;;17.05;4.90;;;;;;;15.82;82.73;100984.34;5054463;28;20037;-61
2023/07/16 05:15:21;;;;;;;11.48;5.00;;;;;;;15.92;81.28;100994.00;5054095;28;20426;-60
2023/07/16 05:17:47;;;;;;;10.52;4.78;;;;;;;15.96;80.91;100992.19;5072265;28;20028;-59
2023/07/16 05:20:12;;;;;;;11.15;5.13;;;;;;;16.02;80.32;100997.50;5071921;28;20401;-60
2023/07/16 05:22:37;;;;;;;15.50;5.05;;;;;;;16.08;79.96;100991.22;5072055;28;20040;-60
2023/07/16 05:25:04;;;;;;;12.45;4.85;;;;;;;16.12;78.88;100999.16;5071669;28;20040;-60
2023/07/16 05:27:30;;;;;;;11.20;5.55;;;;;;;16.13;78.85;101006.25;5072234;28;20555;-60
2023/07/16 05:29:55;;;;;;;9.70;4.93;;;;;;;16.22;78.97;100997.28;5071988;28;20546;-61
2023/07/16 05:32:21;;;;;;;13.55;4.82;;;;;;;16.31;78.07;101006.97;5071769;28;20024;-60
2023/07/16 05:34:47;;;;;;;18.90;5.20;;;;;;;16.38;78.04;100996.22;5071872;28;20478;-61
2023/07/16 05:37:12;;;;;;;15.43;5.30;;;;;;;16.50;77.78;100997.88;5071665;28;20043;-60
2023/07/16 05:39:38;;;;;;;12.82;5.32;;;;;;;16.57;76.83;101004.91;5072045;28;20028;-60
2023/07/16 05:42:04;;;;;;;13.35;5.10;;;;;;;16.64;76.88;101006.59;5071583;28;20024;-60
2023/07/16 05:44:29;;;;;;;15.60;5.55;;;;;;;16.68;76.63;101005.66;5072011;28;20070;-60
2023/07/16 05:46:55;;;;;;;16.60;5.70;;;;;;;16.78;75.83;101006.47;5071563;28;20056;-60
2023/07/16 05:49:20;;;;;;;14.75;5.68;;;;;;;16.81;75.96;101011.78;5053855;28;20078;-60
2023/07/16 05:51:46;;;;;;;15.98;5.03;;;;;;;16.96;75.24;101016.94;5074670;28;20392;-60
2023/07/16 05:54:11;;;;;;;11.60;4.97;;;;;;;17.03;73.72;101012.38;5075559;28;20024;-61
2023/07/16 05:56:36;;;;;;;13.07;5.57;;;;;;;17.05;73.63;101021.28;5075686;28;20024;-60
2023/07/16 05:59:02;;;;;;;12.85;5.53;;;;;;;17.13;73.60;101021.16;5075427;28;20462;-60
2023/07/16 06:01:27;;;;;;;14.20;5.50;;;;;;;17.21;73.57;101025.47;5075537;28;20021;-60
2023/07/16 06:03:53;;;;;;;13.75;5.60;;;;;;;17.28;73.00;101027.16;5075469;28;20035;-60
2023/07/16 06:06:19;;;;;;;13.98;5.70;;;;;;;17.32;72.76;101037.81;5075340;28;20082;-60
2023/07/16 06:08:45;;;;;;;12.15;5.07;;;;;;;17.40;73.37;101039.47;5075094;28;20025;-61
2023/07/16 06:11:10;;;;;;;13.40;5.47;;;;;;;17.51;72.69;101047.31;5075600;28;20020;-60
2023/07/16 06:13:35;;;;;;;12.95;5.82;;;;;;;17.59;72.00;101048.09;5075248;28;20547;-60
2023/07/16 06:16:01;;;;;;;11.10;5.25;;;;;;;17.67;71.12;101029.28;5075273;28;20025;-61
2023/07/16 06:18:26;;;;;;;15.90;5.38;;;;;;;17.75;71.04;101048.78;5075010;28;20036;-61
2023/07/16 06:20:52;;;;;;;14.45;5.78;;;;;;;17.82;70.82;101037.09;5075027;28;20441;-60
2023/07/16 06:23:18;;;;;;;12.80;5.30;;;;;;;17.89;70.14;101045.88;5075160;28;20037;-60
2023/07/16 06:25:44;;;;;;;12.13;5.55;;;;;;;17.96;69.67;101047.56;5074688;28;20528;-60
2023/07/16 06:28:10;;;;;;;12.55;5.40;;;;;;;18.01;69.77;101045.69;5075205;28;20418;-63
2023/07/16 06:30:36;;;;;;;20.45;5.63;;;;;;;18.02;69.73;101051.00;5075033;28;20459;-60
2023/07/16 06:33:02;;;;;;;13.80;5.60;;;;;;;17.98;68.66;101067.13;5057289;28;20032;-60
2023/07/16 06:35:27;;;;;;;22.70;5.40;;;;;;;18.06;68.74;101067.88;5074553;28;20118;-61
2023/07/16 06:37:52;;;;;;;15.45;5.50;;;;;;;18.09;68.45;101059.81;5056825;28;20031;-61
2023/07/16 06:40:18;;;;;;;11.45;5.43;;;;;;;18.09;69.86;101054.47;5056564;28;20044;-61
2023/07/16 06:42:43;;;;;;;13.73;5.65;;;;;;;18.24;68.67;101066.69;5074534;28;20375;-62
2023/07/16 06:45:09;;;;;;;12.95;5.47;;;;;;;18.39;68.81;101057.53;5074698;28;20029;-62
2023/07/16 06:47:34;;;;;;;11.95;5.55;;;;;;;18.45;68.48;101060.94;5074766;28;20050;-61
2023/07/16 06:49:59;;;;;;;14.75;6.25;;;;;;;18.57;67.94;101050.94;5074393;28;20162;-61
2023/07/16 06:52:27;;;;;;;13.23;5.82;;;;;;;18.61;67.43;101061.56;5074340;28;20036;-61
2023/07/16 06:54:56;;;;;;;9.73;5.57;;;;;;;18.61;67.01;101069.59;5074566;28;20097;-61
2023/07/16 06:57:22;;;;;;;15.82;6.32;;;;;;;18.67;66.74;101063.22;5074253;28;20032;-61
2023/07/16 06:59:47;;;;;;;14.82;6.22;;;;;;;18.74;66.39;101067.59;5074430;28;20035;-62
2023/07/16 07:02:13;;;;;;;12.90;6.60;;;;;;;18.83;65.58;101083.47;5074277;28;20028;-62
2023/07/16 07:04:38;;;;;;;15.82;6.35;;;;;;;18.91;65.80;101076.19;5074499;28;20422;-61
2023/07/16 07:07:04;;;;;;;16.00;5.97;;;;;;;19.04;66.04;101092.88;5074379;28;20496;-62
2023/07/16 07:09:30;;;;;;;12.63;6.07;;;;;;;19.15;66.10;101088.19;5074163;28;20350;-63
2023/07/16 07:11:55;;;;;;;13.43;5.80;;;;;;;19.33;64.85;101083.38;5074134;28;20024;-62
2023/07/16 07:14:20;;;;;;;14.68;6.28;;;;;;;19.40;65.89;101082.28;5056146;28;20028;-61
2023/07/16 07:16:46;;;;;;;14.18;6.43;;;;;;;19.56;65.62;101094.44;5074136;28;20054;-61
2023/07/16 07:19:11;;;;;;;14.55;5.80;;;;;;;19.75;65.32;101106.56;5073845;28;20127;-63
2023/07/16 07:21:37;;;;;;;13.90;6.20;;;;;;;19.74;62.74;101101.22;5073991;28;20402;-62
2023/07/16 07:24:02;;;;;;;14.35;5.90;;;;;;;19.80;63.49;101097.53;5073780;28;20478;-61
2023/07/16 07:26:28;;;;;;;12.52;5.90;;;;;;;19.85;63.16;101101.00;5073788;28;20528;-62
2023/07/16 07:28:53;;;;;;;16.85;6.00;;;;;;;19.89;62.90;101105.38;5073622;28;20028;-62
2023/07/16 07:31:19;;;;;;;18.80;6.55;;;;;;;19.99;63.44;101099.72;5074162;28;20035;-62
2023/07/16 07:33:44;;;;;;;15.45;6.30;;;;;;;20.15;63.36;101100.25;5073612;28;20028;-62
2023/07/16 07:36:09;;;;;;;11.15;5.97;;;;;;;20.35;63.34;101106.94;5073739;28;20036;-61
2023/07/16 07:38:35;;;;;;;10.88;5.63;;;;;;;20.18;59.98;101120.75;5073641;28;20386;-62
2023/07/16 07:41:00;;;;;;;12.85;5.60;;;;;;;20.11;61.39;101113.78;5073631;28;20025;-62
2023/07/16 07:43:26;;;;;;;13.15;5.57;;;;;;;20.13;60.96;101110.16;5073561;28;20097;-63
2023/07/16 07:45:52;;;;;;;11.68;5.63;;;;;;;20.08;60.39;101105.78;5073272;28;20028;-60
2023/07/16 07:48:17;;;;;;;13.70;6.05;;;;;;;19.95;61.83;101111.44;5073576;28;20028;-62
2023/07/16 07:50:43;;;;;;;13.77;5.88;;;;;;;20.08;61.90;101105.78;5073582;28;20384;-62
2023/07/16 07:53:08;;;;;;;12.73;5.70;;;;;;;20.10;60.76;101110.22;5073475;28;20035;-61
2023/07/16 07:55:35;;;;;;;16.33;6.55;;;;;;;20.19;61.88;101119.84;5073328;28;20382;-61
2023/07/16 07:58:00;;;;;;;14.05;5.95;;;;;;;20.26;61.05;101116.09;5073110;28;20495;-63
2023/07/16 08:00:26;;;;;;;14.20;5.75;;;;;;;20.31;60.73;101122.22;5073314;28;20030;-61
2023/07/16 08:02:51;;;;;;;13.50;6.32;;;;;;;20.41;61.08;101120.19;5073116;28;20033;-62
2023/07/16 08:05:17;;;;;;;18.73;6.45;;;;;;;20.59;61.23;101124.22;5072920;28;20060;-63
2023/07/16 08:07:42;;;;;;;10.88;5.75;;;;;;;20.89;61.01;101103.72;5073168;28;20032;-62
2023/07/16 08:10:08;;;;;;;11.98;5.53;;;;;;;21.00;59.36;101112.34;5073154;28;20466;-62
2023/07/16 08:12:33;;;;;;;13.85;6.05;;;;;;;21.15;59.32;101116.41;5072533;28;20057;-62
2023/07/16 08:14:58;;;;;;;13.02;5.30;;;;;;;21.34;58.50;101120.38;5072710;28;20029;-62
2023/07/16 08:17:24;;;;;;;14.27;5.70;;;;;;;21.15;57.41;101121.78;5072999;28;20029;-62
2023/07/16 08:19:49;;;;;;;11.23;5.47;;;;;;;20.98;58.68;101115.09;5072844;28;20509;-61
2023/07/16 08:22:15;;;;;;;10.40;5.82;;;;;;;20.97;58.82;101110.63;5073000;28;20055;-62
2023/07/16 08:24:40;;;;;;;12.80;6.05;;;;;;;21.17;58.38;101115.44;5072607;28;20057;-61
2023/07/16 08:27:05;;;;;;;11.48;5.78;;;;;;;21.46;58.06;101124.50;5072768;28;20402;-61
2023/07/16 08:29:31;;;;;;;13.90;5.97;;;;;;;21.60;58.33;101127.66;5072411;28;20025;-63
2023/07/16 08:31:56;;;;;;;11.02;5.20;;;;;;;21.86;57.81;101121.47;5072726;28;20028;-60
2023/07/16 08:34:22;;;;;;;11.68;5.43;;;;;;;22.02;56.00;101137.13;5072451;28;20129;-62
2023/07/16 08:36:47;;;;;;;13.57;5.65;;;;;;;21.88;56.13;101118.72;5072763;28;20474;-60
2023/07/16 08:39:12;;;;;;;11.90;5.30;;;;;;;22.01;55.20;101128.16;5072351;28;20064;-61
2023/07/16 08:41:39;;;;;;;11.73;5.25;;;;;;;22.18;55.72;101136.63;5072510;28;20043;-62
2023/07/16 08:44:05;;;;;;;13.23;5.97;;;;;;;22.16;55.42;101130.41;5072244;28;20240;-62
2023/07/16 08:46:31;;;;;;;10.40;5.15;;;;;;;22.21;54.51;101136.50;5072127;28;20453;-62
2023/07/16 08:48:57;;;;;;;14.23;5.90;;;;;;;22.09;55.58;101136.84;5072485;28;20509;-61
2023/07/16 08:51:25;;;;;;;13.70;5.85;;;;;;;22.04;55.98;101136.13;5072250;28;20032;-62
2023/07/16 08:53:50;;;;;;;9.10;5.00;;;;;;;21.85;56.19;101141.22;5072549;28;20032;-61
2023/07/16 08:56:16;;;;;;;11.88;5.32;;;;;;;21.68;56.21;101131.00;5072280;28;20035;-61
2023/07/16 08:58:44;;;;;;;12.57;5.63;;;;;;;21.61;56.20;101133.91;5072046;28;20028;-62
2023/07/16 09:01:10;;;;;;;14.20;5.35;;;;;;;21.53;56.55;101134.13;5071709;28;20131;-60
2023/07/16 09:03:36;;;;;;;9.43;4.95;;;;;;;21.72;56.08;101150.63;5072211;28;20056;-61
2023/07/16 09:06:04;;;;;;;11.30;5.13;;;;;;;21.83;55.57;101144.88;5071391;28;20027;-60
2023/07/16 09:08:29;;;;;;;10.88;5.00;;;;;;;22.15;55.15;101149.28;5071331;28;20032;-61
2023/07/16 09:10:56;;;;;;;13.43;5.25;;;;;;;22.45;54.60;101153.66;5071580;28;20485;-60
2023/07/16 09:13:26;;;;;;;10.70;5.18;;;;;;;22.59;52.76;101153.19;5071516;28;20035;-62
2023/07/16 09:15:52;;;;;;;12.32;5.25;;;;;;;22.65;54.16;101142.19;5072348;28;20111;-61
2023/07/16 09:18:22;;;;;;;8.75;4.80;;;;;;;22.74;53.32;101159.88;5072121;28;20055;-60
2023/07/16 09:20:49;;;;;;;12.10;5.10;;;;;;;22.64;53.00;101167.38;5072142;28;20451;-60
2023/07/16 09:23:17;;;;;;;9.18;4.70;;;;;;;22.58;53.68;101150.56;5071966;28;20025;-60
2023/07/16 09:25:43;;;;;;;10.43;5.13;;;;;;;22.42;53.65;101172.59;5074807;28;20040;-61
2023/07/16 09:28:08;;;;;;;14.75;5.40;;;;;;;22.13;53.28;101161.91;5076060;28;20111;-60
2023/07/16 09:30:34;;;;;;;9.32;4.82;;;;;;;22.44;54.83;101151.00;5076172;28;20099;-59
2023/07/16 09:33:11;;;;;;;12.40;4.63;;;;;;;22.91;52.77;101152.13;5075921;28;20413;-60
2023/07/16 09:35:37;;;;;;;11.90;4.68;;;;;;;23.36;52.34;101147.78;5075893;28;20494;-59
2023/07/16 09:38:03;;;;;;;11.73;4.85;;;;;;;23.75;51.10;101150.81;5075942;28;20056;-59
2023/07/16 09:40:29;;;;;;;10.80;4.53;;;;;;;23.76;49.91;101151.69;5076047;28;20131;-60
2023/07/16 09:42:55;;;;;;;11.23;4.78;;;;;;;23.73;50.86;101152.69;5075948;28;20044;-60
2023/07/16 09:45:20;;;;;;;10.95;4.70;;;;;;;23.64;50.31;101159.28;5075693;28;20073;-60
2023/07/16 09:47:46;;;;;;;11.07;4.82;;;;;;;23.60;52.00;101165.75;5075879;28;20032;-61
2023/07/16 09:50:12;;;;;;;10.30;4.90;;;;;;;23.56;50.78;101158.72;5075657;28;20020;-60
2023/07/16 09:52:39;;;;;;;11.02;4.90;;;;;;;23.52;51.73;101166.97;5075714;28;20029;-61
2023/07/16 09:55:08;;;;;;;10.27;4.72;;;;;;;23.54;50.65;101173.19;5068176;28;20107;-60
2023/07/16 09:57:37;;;;;;;13.05;4.50;;;;;;;23.44;50.38;101180.75;5075030;28;20079;-61
2023/07/16 10:00:11;;;;;;;8.88;4.68;;;;;;;23.12;50.40;101184.59;5074720;28;20377;-61
2023/07/16 10:02:37;;;;;;;7.40;4.50;;;;;;;22.92;52.30;101191.59;5075127;28;20106;-61
2023/07/16 10:05:16;;;;;;;8.38;4.57;;;;;;;22.80;52.78;101186.59;5075181;28;20463;-60
2023/07/16 10:07:43;;;;;;;11.57;4.47;;;;;;;22.88;52.56;101180.94;5075368;28;20039;-60
2023/07/16 10:10:10;;;;;;;10.40;4.78;;;;;;;22.73;52.27;101183.22;5075214;28;20040;-61
2023/07/16 10:12:37;;;;;;;10.25;4.68;;;;;;;22.81;53.03;101182.97;5075547;28;20031;-60
2023/07/16 10:15:04;;;;;;;8.90;4.68;;;;;;;22.93;51.76;101189.78;5075634;28;20041;-60
2023/07/16 10:17:31;;;;;;;10.35;4.80;;;;;;;22.95;52.96;101190.59;5057248;28;20016;-59
2023/07/16 10:20:07;;;;;;;8.25;4.40;;;;;;;23.09;51.72;101196.41;5075546;28;20173;-61
2023/07/16 10:22:34;;;;;;;10.80;5.00;;;;;;;23.02;51.83;101207.44;5075540;28;20039;-60
2023/07/16 10:25:00;;;;;;;9.77;4.57;;;;;;;23.17;52.08;101212.31;5074536;28;20152;-60
2023/07/16 10:27:30;;;;;;;10.80;4.68;;;;;;;23.32;51.58;101202.78;5075116;28;20111;-60
2023/07/16 10:29:56;;;;;;;11.27;4.65;;;;;;;23.07;51.11;101221.63;5075116;28;20028;-60
2023/07/16 10:32:22;;;;;;;14.93;5.20;;;;;;;23.12;51.89;101212.44;5075275;28;20024;-59
2023/07/16 10:34:47;;;;;;;11.48;5.00;;;;;;;22.92;52.59;101214.97;5075075;28;20025;-60
2023/07/16 10:37:12;;;;;;;10.57;4.45;;;;;;;22.90;53.69;101227.59;5074258;28;20390;-61
2023/07/16 10:39:48;;;;;;;9.55;4.70;;;;;;;23.30;53.85;101216.31;5075141;28;20029;-60
2023/07/16 10:42:16;;;;;;;11.82;4.97;;;;;;;23.47;50.81;101213.88;5075001;28;20036;-61
2023/07/16 10:44:42;;;;;;;14.77;5.22;;;;;;;23.61;52.08;101215.19;5074900;28;20105;-60
2023/07/16 10:47:09;;;;;;;10.80;4.85;;;;;;;23.82;51.05;101208.13;5074690;28;20021;-60
2023/07/16 10:49:34;;;;;;;14.65;4.78;;;;;;;24.17;50.51;101196.81;5074360;28;20029;-61
2023/07/16 10:52:01;;;;;;;10.45;5.20;;;;;;;24.42;50.83;101214.78;5074869;28;20040;-61
2023/07/16 10:54:26;;;;;;;9.80;4.60;;;;;;;24.64;50.38;101201.25;5074562;28;20107;-61
2023/07/16 10:56:53;;;;;;;12.27;4.75;;;;;;;24.84;50.69;101224.69;5074804;28;20111;-62
2023/07/16 10:59:18;;;;;;;10.82;4.70;;;;;;;24.56;46.38;101228.59;5074484;28;20046;-60
2023/07/16 11:01:44;;;;;;;11.35;4.30;;;;;;;24.52;47.68;101216.13;5074379;28;20028;-62
2023/07/16 11:04:09;;;;;;;8.35;4.60;;;;;;;24.35;47.32;101213.22;5074357;28;20027;-61
2023/07/16 11:06:38;;;;;;;12.75;4.70;;;;;;;24.10;47.60;101225.00;5074449;28;20020;-61
2023/07/16 11:09:09;;;;;;;10.20;4.15;;;;;;;23.93;48.16;101243.66;5074621;28;20553;-60
2023/07/16 11:11:35;;;;;;;10.10;4.18;;;;;;;23.74;48.33;101232.72;5074647;28;20350;-61
2023/07/16 11:14:04;;;;;;;9.95;4.47;;;;;;;23.42;48.43;101236.53;5073463;28;20024;-60